Time;durP1;ratioP1;P1;durP2;ratioP2;P2;SDS_P1;SDS_P2;PMS_P1;PMS_P2;Temp;Humidity;BMP_temperature;BMP_pressure;BME280_temperature;BME280_humidity;BME280_pressure;Samples;Min_cycle;Max_cycle;Signal;HPM_P1;HPM_P2
2022/07/27 00:01:38;;;;;;;11.77;3.42;;;;;;;16.19;59.58;99932.38;5027938;28;20041;-69
2022/07/27 00:04:05;;;;;;;4.53;2.00;;;;;;;16.17;60.25;99921.00;5027242;28;20136;-69
2022/07/27 00:06:32;;;;;;;12.65;2.38;;;;;;;16.15;59.83;99927.41;5027419;28;20052;-69
2022/07/27 00:08:59;;;;;;;8.05;2.40;;;;;;;16.21;60.22;99930.44;5027848;28;20049;-67
2022/07/27 00:11:25;;;;;;;7.95;2.08;;;;;;;16.28;60.10;99921.09;5027665;28;20049;-67
2022/07/27 00:13:53;;;;;;;6.10;2.70;;;;;;;16.26;60.66;99925.66;5027492;28;20534;-68
2022/07/27 00:16:20;;;;;;;9.43;2.47;;;;;;;16.27;59.97;99926.53;5026254;28;20140;-67
2022/07/27 00:18:47;;;;;;;6.85;2.78;;;;;;;16.27;60.12;99932.69;5027551;28;20140;-67
2022/07/27 00:21:13;;;;;;;7.18;3.03;;;;;;;16.24;59.85;99937.38;5027051;28;20060;-68
2022/07/27 00:23:40;;;;;;;4.50;2.20;;;;;;;16.22;60.16;99933.97;5025176;28;20042;-68
2022/07/27 00:26:07;;;;;;;4.45;2.00;;;;;;;16.22;59.96;99933.97;5025932;28;20111;-67
2022/07/27 00:28:33;;;;;;;3.58;1.98;;;;;;;16.18;60.10;99935.16;5027413;28;20048;-68
2022/07/27 00:31:01;;;;;;;6.15;1.98;;;;;;;16.12;60.07;99925.81;5027302;28;20056;-70
2022/07/27 00:33:28;;;;;;;5.07;2.42;;;;;;;15.99;60.27;99925.78;5027153;28;20420;-69
2022/07/27 00:35:54;;;;;;;5.03;2.85;;;;;;;16.00;61.08;99931.97;5026952;28;20057;-68
2022/07/27 00:38:21;;;;;;;7.90;2.35;;;;;;;15.97;60.86;99924.19;5026968;28;20042;-68
2022/07/27 00:40:47;;;;;;;5.40;2.20;;;;;;;16.04;60.63;99928.97;5027291;28;20059;-70
2022/07/27 00:43:14;;;;;;;4.63;2.30;;;;;;;16.04;61.06;99923.66;5027511;28;20059;-67
2022/07/27 00:45:41;;;;;;;8.13;2.63;;;;;;;15.95;60.41;99916.34;5026612;28;20057;-69
2022/07/27 00:48:08;;;;;;;5.10;1.80;;;;;;;15.99;61.19;99919.63;5026983;28;20042;-67
2022/07/27 00:50:35;;;;;;;5.78;2.20;;;;;;;16.02;61.19;99920.28;5027172;28;20055;-69
2022/07/27 00:53:04;;;;;;;7.93;2.30;;;;;;;15.97;61.17;99918.88;5027043;28;20061;-69
2022/07/27 00:55:32;;;;;;;10.32;4.55;;;;;;;15.96;60.63;99918.03;5026428;28;20045;-68
2022/07/27 00:57:59;;;;;;;6.32;2.13;;;;;;;15.97;61.06;99919.72;5027083;28;20037;-69
2022/07/27 01:00:26;;;;;;;3.10;1.80;;;;;;;16.01;61.04;99917.72;5023949;28;20057;-69
2022/07/27 01:02:52;;;;;;;4.72;2.03;;;;;;;15.98;60.55;99924.09;5027221;28;20049;-69
2022/07/27 01:05:20;;;;;;;7.03;2.58;;;;;;;15.96;61.13;99915.38;5026539;28;20045;-69
2022/07/27 01:07:47;;;;;;;4.32;1.90;;;;;;;15.85;60.87;99917.91;5027035;28;20050;-70
2022/07/27 01:10:14;;;;;;;9.60;2.95;;;;;;;15.78;61.24;99914.84;5026961;28;20705;-70
2022/07/27 01:12:41;;;;;;;5.82;2.13;;;;;;;15.85;61.49;99917.91;5027006;28;20053;-70
2022/07/27 01:15:08;;;;;;;5.45;2.20;;;;;;;15.81;61.05;99919.94;5026210;28;20060;-70
2022/07/27 01:17:35;;;;;;;6.00;2.25;;;;;;;15.81;61.51;99914.63;5026484;28;20041;-69
2022/07/27 01:20:01;;;;;;;4.47;2.03;;;;;;;15.78;61.53;99906.03;5026690;28;20073;-70
2022/07/27 01:22:29;;;;;;;4.47;2.10;;;;;;;15.76;61.43;99908.78;5026717;28;20136;-70
2022/07/27 01:24:56;;;;;;;7.18;2.08;;;;;;;15.73;61.32;99903.69;5026477;28;20750;-70
2022/07/27 01:27:23;;;;;;;6.75;2.33;;;;;;;15.77;61.76;99910.47;5028171;28;20045;-70
2022/07/27 01:29:49;;;;;;;5.22;2.20;;;;;;;15.75;61.71;99908.88;5013519;28;20054;-69
2022/07/27 01:32:16;;;;;;;7.88;2.25;;;;;;;15.76;61.71;99916.75;5011235;28;20511;-70
2022/07/27 01:34:42;;;;;;;9.95;2.75;;;;;;;15.77;61.46;99914.94;5010869;28;20187;-70
2022/07/27 01:37:09;;;;;;;6.40;2.05;;;;;;;15.84;61.30;99909.09;5011443;28;20076;-70
2022/07/27 01:39:37;;;;;;;5.05;1.88;;;;;;;15.86;61.43;99909.00;5013318;28;20046;-70
2022/07/27 01:42:04;;;;;;;3.55;2.40;;;;;;;15.87;61.75;99913.34;5030899;28;20058;-70
2022/07/27 01:44:31;;;;;;;5.63;2.05;;;;;;;15.92;61.41;99919.19;5029724;28;20057;-69
2022/07/27 01:46:58;;;;;;;6.72;1.88;;;;;;;15.84;61.19;99914.41;5030575;28;20049;-70
2022/07/27 01:49:24;;;;;;;6.30;1.67;;;;;;;15.87;61.25;99914.22;5030592;28;20140;-68
2022/07/27 01:51:51;;;;;;;4.80;2.38;;;;;;;15.92;61.29;99918.34;5030362;28;20056;-69
2022/07/27 01:54:18;;;;;;;6.40;2.78;;;;;;;15.86;61.16;99916.97;5030148;28;20176;-69
2022/07/27 01:56:46;;;;;;;5.43;1.98;;;;;;;15.85;61.54;99909.94;5030981;28;20136;-68
2022/07/27 01:59:12;;;;;;;5.60;1.95;;;;;;;15.83;61.65;99917.19;5030916;28;20049;-68
2022/07/27 02:01:39;;;;;;;5.07;2.20;;;;;;;15.79;62.16;99913.88;5030550;28;20752;-68
2022/07/27 02:04:05;;;;;;;6.65;2.53;;;;;;;15.80;61.33;99909.41;5029793;28;20489;-70
2022/07/27 02:06:32;;;;;;;3.05;1.70;;;;;;;15.76;61.54;99923.88;5029909;28;20430;-69
2022/07/27 02:08:58;;;;;;;5.32;1.77;;;;;;;15.80;61.76;99912.06;5029968;28;20055;-69
2022/07/27 02:14:11;;;;;;;5.90;2.65;;;;;;;15.70;61.61;99905.69;5029351;28;20135;-68
2022/07/27 02:16:37;;;;;;;6.13;2.35;;;;;;;15.70;62.04;99906.53;5029411;28;20046;-68
2022/07/27 02:19:05;;;;;;;4.82;1.85;;;;;;;15.69;62.06;99904.78;5029355;28;20067;-68
2022/07/27 02:21:31;;;;;;;5.43;2.17;;;;;;;15.70;61.91;99901.19;5029443;28;20046;-69
2022/07/27 02:23:58;;;;;;;5.68;2.05;;;;;;;15.70;61.90;99903.00;5028842;28;20398;-70
2022/07/27 02:26:25;;;;;;;7.68;2.47;;;;;;;15.60;62.37;99900.97;5029553;28;20060;-70
2022/07/27 02:28:52;;;;;;;4.85;2.25;;;;;;;15.60;62.48;99911.63;5026161;28;20056;-69
2022/07/27 02:31:20;;;;;;;5.25;1.85;;;;;;;15.57;63.00;99901.16;5029547;28;20053;-69
2022/07/27 02:33:46;;;;;;;6.70;1.95;;;;;;;15.58;62.87;99900.22;5029691;28;20436;-69
2022/07/27 02:36:13;;;;;;;7.07;2.53;;;;;;;15.55;63.05;99897.75;5029057;28;20052;-69
2022/07/27 02:38:39;;;;;;;8.18;2.28;;;;;;;15.49;63.21;99905.31;5028129;28;20041;-69
2022/07/27 02:41:06;;;;;;;5.05;2.15;;;;;;;15.44;63.41;99901.16;5029459;28;20054;-68
2022/07/27 02:43:32;;;;;;;7.47;2.60;;;;;;;15.45;63.78;99907.31;5029655;28;20041;-69
2022/07/27 02:45:59;;;;;;;4.63;3.22;;;;;;;15.39;64.06;99902.44;5028685;28;20144;-69
2022/07/27 02:48:27;;;;;;;3.75;2.20;;;;;;;15.39;63.98;99905.94;5030871;28;20132;-70
2022/07/27 02:50:54;;;;;;;6.85;2.85;;;;;;;15.37;64.25;99909.66;5032287;28;20045;-70
2022/07/27 02:53:20;;;;;;;4.03;1.90;;;;;;;15.30;64.64;99918.97;5034184;28;20057;-70
2022/07/27 02:55:47;;;;;;;9.77;2.40;;;;;;;15.31;64.69;99916.22;5033998;28;20140;-69
2022/07/27 02:58:13;;;;;;;4.72;2.25;;;;;;;15.29;64.96;99914.63;5037488;28;20339;-69
2022/07/27 03:00:40;;;;;;;6.53;2.80;;;;;;;15.21;65.17;99909.81;5037588;28;20543;-69
2022/07/27 03:03:06;;;;;;;6.43;2.30;;;;;;;15.13;65.90;99909.47;5037503;28;20068;-70
2022/07/27 03:05:34;;;;;;;8.93;2.65;;;;;;;15.11;65.77;99908.72;5037208;28;20053;-70
2022/07/27 03:08:02;;;;;;;8.77;3.10;;;;;;;15.00;66.13;99915.59;5036530;28;20055;-69
2022/07/27 03:10:29;;;;;;;7.57;3.33;;;;;;;14.96;66.34;99921.19;5036321;28;20046;-69
2022/07/27 03:12:55;;;;;;;5.60;2.22;;;;;;;14.94;66.36;99920.44;5035170;28;20050;-70
2022/07/27 03:15:22;;;;;;;6.10;2.63;;;;;;;14.89;66.78;99912.78;5023866;28;20049;-70
2022/07/27 03:17:49;;;;;;;10.60;4.22;;;;;;;14.84;66.92;99914.91;5028792;28;20048;-70
2022/07/27 03:20:15;;;;;;;4.97;2.40;;;;;;;14.75;67.39;99916.34;5028350;28;20060;-70
2022/07/27 03:22:43;;;;;;;4.10;2.33;;;;;;;14.70;67.52;99914.94;5028812;28;20045;-69
2022/07/27 03:25:10;;;;;;;6.32;2.90;;;;;;;14.69;67.70;99916.72;5027937;28;20140;-69
2022/07/27 03:27:36;;;;;;;6.68;2.60;;;;;;;14.70;67.80;99915.78;5028738;28;20050;-70
2022/07/27 03:30:04;;;;;;;8.30;3.15;;;;;;;14.65;67.99;99912.56;5009596;28;20050;-70
2022/07/27 03:32:31;;;;;;;7.40;2.92;;;;;;;14.66;67.75;99916.91;5013887;28;20041;-69
2022/07/27 03:34:57;;;;;;;7.43;2.97;;;;;;;14.66;67.69;99914.25;5027884;28;20053;-69
2022/07/27 03:37:24;;;;;;;6.85;2.83;;;;;;;14.67;67.89;99921.28;5028515;28;20417;-71
2022/07/27 03:39:52;;;;;;;8.90;2.88;;;;;;;14.66;68.02;99911.59;5028510;28;20140;-71
2022/07/27 03:42:19;;;;;;;8.02;2.95;;;;;;;14.62;67.91;99918.09;5028462;28;20665;-70
2022/07/27 03:44:45;;;;;;;4.95;2.90;;;;;;;14.58;68.27;99922.72;5027659;28;20527;-70
2022/07/27 03:47:12;;;;;;;7.93;3.22;;;;;;;14.49;68.55;99917.94;5028522;28;20428;-70
2022/07/27 03:49:38;;;;;;;6.88;3.03;;;;;;;14.39;68.81;99923.00;5028189;28;20045;-69
2022/07/27 03:52:05;;;;;;;5.85;3.13;;;;;;;14.37;69.22;99932.88;5028094;28;20049;-70
2022/07/27 03:54:32;;;;;;;5.25;2.83;;;;;;;14.36;69.12;99925.84;5027849;28;20053;-69
2022/07/27 03:57:01;;;;;;;8.90;3.40;;;;;;;14.37;69.16;99924.91;5028364;28;20071;-70
2022/07/27 03:59:27;;;;;;;8.32;3.30;;;;;;;14.41;69.41;99924.72;5028145;28;20045;-71
2022/07/27 04:01:54;;;;;;;6.25;3.53;;;;;;;14.42;69.55;99931.69;5028180;28;20077;-69
2022/07/27 04:04:20;;;;;;;9.02;2.92;;;;;;;14.43;69.55;99923.66;5027846;28;20136;-69
2022/07/27 04:06:47;;;;;;;8.30;3.08;;;;;;;14.40;69.61;99934.47;5028308;28;20587;-69
2022/07/27 04:09:15;;;;;;;5.63;2.63;;;;;;;14.43;69.31;99939.56;5025526;28;20760;-69
2022/07/27 04:11:43;;;;;;;8.45;4.22;;;;;;;14.42;69.53;99943.16;5020635;28;20056;-69
2022/07/27 04:14:11;;;;;;;6.75;3.53;;;;;;;14.35;69.62;99942.72;5031239;28;20575;-69
2022/07/27 04:16:38;;;;;;;5.53;2.80;;;;;;;14.33;69.55;99939.31;5031135;28;20050;-68
2022/07/27 04:19:05;;;;;;;6.30;4.38;;;;;;;14.33;69.70;99943.75;5027565;28;20071;-70
2022/07/27 04:21:33;;;;;;;6.00;3.33;;;;;;;14.33;69.58;99941.94;5027250;28;20049;-70
2022/07/27 04:24:00;;;;;;;6.13;3.47;;;;;;;14.35;69.35;99947.19;5027108;28;20046;-70
2022/07/27 04:26:26;;;;;;;6.10;4.03;;;;;;;14.32;69.58;99953.53;5007731;28;20427;-69
2022/07/27 04:28:53;;;;;;;9.77;3.58;;;;;;;14.35;69.41;99944.53;5013406;28;20473;-70
2022/07/27 04:31:21;;;;;;;10.80;3.95;;;;;;;14.30;69.48;99941.28;5027559;28;20080;-70
2022/07/27 04:33:48;;;;;;;6.13;3.10;;;;;;;14.27;69.91;99947.63;5028227;28;20084;-70
2022/07/27 04:36:15;;;;;;;11.20;3.75;;;;;;;14.29;69.89;99942.22;5027360;28;20620;-70
2022/07/27 04:38:41;;;;;;;6.43;3.15;;;;;;;14.31;69.60;99956.25;5027512;28;20584;-70
2022/07/27 04:41:08;;;;;;;8.20;3.63;;;;;;;14.32;69.83;99948.22;5027398;28;20519;-70
2022/07/27 04:43:35;;;;;;;7.70;3.10;;;;;;;14.33;69.50;99949.06;5027848;28;20045;-69
2022/07/27 04:46:03;;;;;;;8.25;4.70;;;;;;;14.37;69.61;99948.78;5028512;28;20045;-71
2022/07/27 04:48:31;;;;;;;5.78;3.25;;;;;;;14.34;69.48;99945.44;5024023;28;20509;-70
2022/07/27 04:50:57;;;;;;;13.90;3.88;;;;;;;14.31;69.69;99949.16;5027600;28;20486;-68
2022/07/27 04:53:24;;;;;;;8.50;3.78;;;;;;;14.26;69.84;99948.59;5029742;28;20679;-70
2022/07/27 04:55:51;;;;;;;9.07;4.20;;;;;;;14.22;69.96;99949.72;5030479;28;20179;-70
2022/07/27 04:58:17;;;;;;;5.30;3.78;;;;;;;14.20;69.75;99945.44;5030061;28;20460;-69
2022/07/27 05:00:44;;;;;;;9.52;3.65;;;;;;;14.15;69.87;99948.38;5030100;28;20049;-69
2022/07/27 05:03:11;;;;;;;12.70;4.20;;;;;;;14.12;70.09;99952.06;5033462;28;20049;-69
2022/07/27 05:05:39;;;;;;;8.90;4.55;;;;;;;14.12;69.99;99953.88;5033381;28;20052;-71
2022/07/27 05:08:06;;;;;;;10.77;4.05;;;;;;;14.12;70.55;99956.53;5045773;28;20049;-70
2022/07/27 05:10:32;;;;;;;11.93;4.70;;;;;;;14.26;70.15;99958.34;5042067;28;20057;-70
2022/07/27 05:12:59;;;;;;;7.55;4.03;;;;;;;14.32;69.80;99956.16;5037506;28;20049;-70
2022/07/27 05:15:26;;;;;;;8.82;3.97;;;;;;;14.37;69.51;99956.75;5035193;28;20076;-69
2022/07/27 05:17:53;;;;;;;5.80;4.60;;;;;;;14.44;69.43;99969.59;5036436;28;20136;-70
2022/07/27 05:20:19;;;;;;;5.82;3.55;;;;;;;14.53;68.90;99955.78;5035741;28;20045;-70
2022/07/27 05:22:47;;;;;;;13.93;3.90;;;;;;;14.61;68.74;99964.13;5035156;28;20049;-70
2022/07/27 05:25:14;;;;;;;7.72;3.70;;;;;;;14.62;68.41;99964.97;5034830;28;20116;-69
2022/07/27 05:27:41;;;;;;;8.38;4.50;;;;;;;14.62;68.71;99973.81;5032614;28;20485;-71
2022/07/27 05:30:08;;;;;;;9.32;4.35;;;;;;;14.68;68.22;99969.91;5012753;28;20391;-69
2022/07/27 05:32:35;;;;;;;8.43;3.83;;;;;;;14.77;68.59;99959.56;5012778;28;20097;-70
2022/07/27 05:35:01;;;;;;;10.10;5.25;;;;;;;14.81;68.35;99962.84;5011093;28;20081;-70
2022/07/27 05:37:29;;;;;;;6.28;3.78;;;;;;;14.90;68.31;99975.53;5011799;28;20070;-69
2022/07/27 05:39:57;;;;;;;5.93;3.85;;;;;;;14.89;67.68;99978.28;5023501;28;20958;-71
2022/07/27 05:42:24;;;;;;;10.48;4.43;;;;;;;14.91;67.83;99984.34;5031712;28;20141;-70
2022/07/27 05:44:53;;;;;;;5.93;4.05;;;;;;;14.99;67.46;99988.22;5031766;28;20059;-69
2022/07/27 05:47:20;;;;;;;7.68;3.88;;;;;;;15.06;67.49;99983.34;5031048;28;20203;-70
2022/07/27 05:49:46;;;;;;;6.25;3.88;;;;;;;15.07;67.04;99981.56;5030770;28;20049;-69
2022/07/27 05:52:13;;;;;;;6.35;4.20;;;;;;;15.12;66.80;99982.97;5030802;28;20049;-68
2022/07/27 05:54:40;;;;;;;9.50;4.38;;;;;;;15.19;66.88;99986.09;5030907;28;20060;-69
2022/07/27 05:57:08;;;;;;;6.70;4.32;;;;;;;15.21;66.43;99986.81;5031652;28;20111;-68
2022/07/27 05:59:35;;;;;;;9.32;4.03;;;;;;;15.24;66.43;99994.63;5030605;28;20050;-70
2022/07/27 06:02:02;;;;;;;10.20;4.45;;;;;;;15.20;66.23;99993.09;5030192;28;20045;-70
2022/07/27 06:04:29;;;;;;;10.68;4.20;;;;;;;15.28;66.17;99990.78;5029838;28;20142;-69
2022/07/27 06:09:40;;;;;;;14.18;5.22;;;;;;;15.36;66.10;99991.16;5049610;28;20059;-67
2022/07/27 06:12:08;;;;;;;6.07;3.45;;;;;;;15.43;65.86;99987.13;5049793;28;20099;-69
2022/07/27 06:14:35;;;;;;;7.85;4.10;;;;;;;15.51;65.39;99986.63;5048885;28;20053;-68
2022/07/27 06:17:02;;;;;;;6.22;3.10;;;;;;;15.61;65.26;99989.53;5049327;28;20053;-68
2022/07/27 06:19:30;;;;;;;10.60;4.57;;;;;;;15.68;64.71;99990.81;5049218;28;20053;-68
2022/07/27 06:21:57;;;;;;;8.15;4.18;;;;;;;15.59;64.63;99989.63;5038386;28;20139;-69
2022/07/27 06:24:24;;;;;;;8.77;3.95;;;;;;;15.65;64.85;99989.22;5029099;28;20107;-68
2022/07/27 06:26:51;;;;;;;9.10;4.15;;;;;;;15.64;64.17;99986.66;5029405;28;20053;-68
2022/07/27 06:29:19;;;;;;;8.13;3.63;;;;;;;15.65;64.86;99989.22;5021065;28;20048;-68
2022/07/27 06:31:46;;;;;;;7.10;4.00;;;;;;;15.76;64.29;99987.69;5020366;28;20173;-68
2022/07/27 06:34:12;;;;;;;9.70;3.75;;;;;;;15.80;64.06;99992.69;5029020;28;20053;-68
2022/07/27 06:36:41;;;;;;;11.20;3.90;;;;;;;15.92;63.84;99988.31;5020396;28;20050;-69
2022/07/27 06:39:07;;;;;;;4.60;3.38;;;;;;;16.04;63.11;99991.94;5009899;28;20041;-69
2022/07/27 06:41:34;;;;;;;6.18;3.50;;;;;;;15.96;62.73;99991.63;5023765;28;20530;-69
2022/07/27 06:44:01;;;;;;;7.50;3.13;;;;;;;15.85;63.12;99989.69;5039178;28;20049;-70
2022/07/27 06:46:28;;;;;;;7.85;2.78;;;;;;;15.84;63.19;99994.16;5034687;28;20050;-70
2022/07/27 06:48:55;;;;;;;6.15;3.42;;;;;;;15.88;64.12;99998.31;5034708;28;20044;-51
2022/07/27 06:51:22;;;;;;;7.20;3.30;;;;;;;16.14;62.96;99998.34;5033943;28;20049;-48
2022/07/27 06:53:51;;;;;;;7.35;3.35;;;;;;;16.19;62.90;99992.69;5028695;28;20045;-50
2022/07/27 06:56:18;;;;;;;11.38;2.80;;;;;;;16.63;61.09;99989.56;5028506;28;20122;-51
2022/07/27 06:58:45;;;;;;;11.05;2.78;;;;;;;16.72;60.77;99988.09;5028482;28;20067;-52
2022/07/27 07:01:14;;;;;;;5.88;2.72;;;;;;;16.76;60.87;99992.25;5028445;28;20045;-46
2022/07/27 07:03:42;;;;;;;5.95;2.60;;;;;;;17.04;59.01;99999.09;5028810;28;20442;-49
2022/07/27 07:06:08;;;;;;;6.00;2.55;;;;;;;17.49;58.23;99999.34;5028362;28;20041;-51
2022/07/27 07:08:35;;;;;;;6.80;2.63;;;;;;;17.72;57.54;99996.75;5028927;28;20053;-51
2022/07/27 07:11:02;;;;;;;8.20;2.95;;;;;;;17.85;56.88;99994.91;5028668;28;20053;-49
2022/07/27 07:13:28;;;;;;;5.28;2.80;;;;;;;17.95;56.16;99989.72;5028464;28;20133;-48
2022/07/27 07:15:55;;;;;;;5.50;2.30;;;;;;;17.93;57.96;99996.97;5027953;28;20045;-50
2022/07/27 07:18:22;;;;;;;10.95;4.20;;;;;;;17.95;59.74;100005.72;5028410;28;20053;-51
2022/07/27 07:20:50;;;;;;;22.10;4.63;;;;;;;18.00;58.16;99996.38;5027827;28;20049;-51
2022/07/27 07:23:16;;;;;;;6.53;2.75;;;;;;;17.73;57.14;100001.97;5028231;28;20420;-47
2022/07/27 07:25:43;;;;;;;8.60;3.30;;;;;;;17.40;58.21;99994.72;5027059;28;20063;-55
2022/07/27 07:28:09;;;;;;;11.05;3.70;;;;;;;17.29;57.73;100005.31;5024719;28;20050;-52
2022/07/27 07:30:36;;;;;;;9.50;3.33;;;;;;;17.43;58.59;100002.47;5008758;28;20112;-53
2022/07/27 07:33:03;;;;;;;13.32;2.85;;;;;;;17.81;57.67;99999.59;5026094;28;20045;-49
2022/07/27 07:35:30;;;;;;;8.50;3.25;;;;;;;18.00;55.64;99993.72;5027910;28;20050;-51
2022/07/27 07:37:58;;;;;;;6.38;2.60;;;;;;;18.14;55.74;99998.00;5028494;28;20548;-50
2022/07/27 07:40:25;;;;;;;9.35;2.70;;;;;;;18.64;53.80;100001.19;5028180;28;20132;-53
2022/07/27 07:42:53;;;;;;;10.85;2.25;;;;;;;18.88;53.13;100003.75;5028186;28;20127;-55
2022/07/27 07:45:21;;;;;;;13.15;3.20;;;;;;;19.19;51.19;100003.09;5027524;28;20059;-52
2022/07/27 07:47:48;;;;;;;4.93;1.90;;;;;;;19.31;51.05;100007.41;5028333;28;20051;-50
2022/07/27 07:50:15;;;;;;;7.00;2.40;;;;;;;19.40;51.27;100005.81;5012070;28;20052;-50
2022/07/27 07:52:42;;;;;;;5.70;1.70;;;;;;;19.67;48.95;100008.91;5016274;28;20710;-70
2022/07/27 07:55:11;;;;;;;6.80;2.25;;;;;;;19.79;49.40;100006.16;5026752;28;20138;-69
2022/07/27 07:57:37;;;;;;;8.93;2.00;;;;;;;19.94;48.71;100008.41;5026767;28;20529;-70
2022/07/27 08:00:07;;;;;;;6.78;2.45;;;;;;;20.05;48.33;100007.47;5025110;28;20064;-70
2022/07/27 08:02:42;;;;;;;8.25;2.72;;;;;;;19.76;46.33;100007.28;5025732;28;20048;-69
2022/07/27 08:05:10;;;;;;;8.00;2.10;;;;;;;19.80;46.73;100010.56;5005926;28;20497;-69
2022/07/27 08:07:36;;;;;;;2.88;1.92;;;;;;;20.27;46.91;100006.50;5007702;28;20045;-69
2022/07/27 08:10:03;;;;;;;7.15;2.47;;;;;;;20.85;46.38;100014.00;5007923;28;20056;-69
2022/07/27 08:12:31;;;;;;;6.80;2.72;;;;;;;21.41;45.77;100009.88;5007676;28;20128;-69
2022/07/27 08:14:58;;;;;;;4.32;1.95;;;;;;;21.45;45.31;100014.00;5007197;28;20052;-70
2022/07/27 08:17:25;;;;;;;4.30;1.95;;;;;;;21.62;44.71;100007.94;5008014;28;20217;-69
2022/07/27 08:19:51;;;;;;;4.38;2.03;;;;;;;21.69;43.94;100013.59;5007540;28;20046;-69
2022/07/27 08:22:18;;;;;;;5.07;2.05;;;;;;;21.32;44.59;100010.72;5007531;28;20103;-69
2022/07/27 08:24:45;;;;;;;6.68;2.58;;;;;;;21.26;45.09;100008.56;5006675;28;20058;-69
2022/07/27 08:27:11;;;;;;;7.70;1.95;;;;;;;21.11;44.55;100003.59;5007577;28;20585;-69
2022/07/27 08:29:39;;;;;;;7.78;1.98;;;;;;;20.85;42.79;100003.28;5008422;28;20052;-69
2022/07/27 08:32:06;;;;;;;6.20;2.42;;;;;;;20.37;43.09;99998.50;5009097;28;20583;-70
2022/07/27 08:34:33;;;;;;;3.40;1.63;;;;;;;20.30;43.66;100000.88;5006938;28;20424;-70
2022/07/27 08:37:00;;;;;;;3.28;1.45;;;;;;;20.21;43.14;99999.00;5020575;28;20084;-69
2022/07/27 08:39:26;;;;;;;3.60;1.58;;;;;;;20.29;43.31;100001.00;5027336;28;20045;-70
2022/07/27 08:41:54;;;;;;;4.32;1.85;;;;;;;20.13;43.94;99993.44;5027083;28;20056;-70
2022/07/27 08:44:24;;;;;;;3.88;2.10;;;;;;;19.98;45.26;99998.28;5026621;28;20497;-70
2022/07/27 08:46:52;;;;;;;5.30;1.95;;;;;;;19.74;45.85;100006.56;5014080;28;20054;-69
2022/07/27 08:49:19;;;;;;;5.72;2.47;;;;;;;19.58;45.39;100008.78;5007382;28;20520;-70
2022/07/27 08:51:46;;;;;;;4.22;1.75;;;;;;;19.32;45.99;100003.78;5007253;28;20056;-70
2022/07/27 08:54:13;;;;;;;11.40;2.22;;;;;;;19.63;46.13;100004.75;5007112;28;20074;-69
2022/07/27 08:56:39;;;;;;;4.05;1.52;;;;;;;20.01;44.78;100007.88;5007195;28;20243;-68
2022/07/27 08:59:06;;;;;;;3.72;1.85;;;;;;;20.21;44.75;100012.38;5006805;28;20080;-70
2022/07/27 09:01:32;;;;;;;3.58;1.73;;;;;;;20.66;43.39;100006.72;5022968;28;20072;-70
2022/07/27 09:04:01;;;;;;;4.75;1.52;;;;;;;21.36;41.58;100009.44;5026366;28;20076;-69
2022/07/27 09:06:46;;;;;;;5.50;1.95;;;;;;;22.13;39.99;100010.44;5027103;28;20057;-71
2022/07/27 09:09:14;;;;;;;;;;;;;;;21.30;41.14;100013.53;5013892;28;20050;-71
2022/07/27 09:11:40;;;;;;;6.72;2.88;;;;;;;20.88;42.64;100016.38;5007004;28;19943;-70
2022/07/27 09:14:10;;;;;;;3.55;1.60;;;;;;;20.44;43.52;100017.59;5006126;28;20140;-71
2022/07/27 09:16:36;;;;;;;13.98;3.67;;;;;;;20.30;44.40;100014.25;5007089;28;20050;-54
2022/07/27 09:19:07;;;;;;;7.32;2.40;;;;;;;20.40;44.15;100003.59;5007377;28;20092;-51
2022/07/27 09:21:35;;;;;;;5.10;2.78;;;;;;;20.25;44.14;100010.28;5006861;28;20046;-52
2022/07/27 09:24:09;;;;;;;6.00;2.72;;;;;;;20.12;44.67;100014.00;5006063;28;20058;-54
2022/07/27 09:26:37;;;;;;;16.17;2.57;;;;;;;20.15;44.42;100008.38;5006917;28;20050;-57
2022/07/27 09:29:07;;;;;;;5.38;3.05;;;;;;;20.11;44.34;100008.81;5006749;28;20580;-51
2022/07/27 09:31:42;;;;;;;11.40;2.53;;;;;;;20.03;44.58;100012.13;5007054;28;20049;-53
2022/07/27 09:34:11;;;;;;;5.63;1.80;;;;;;;20.10;44.28;100009.78;5005879;28;20056;-59
2022/07/27 09:36:50;;;;;;;4.30;1.92;;;;;;;20.10;44.27;100013.28;5006838;28;20085;-54
2022/07/27 09:39:19;;;;;;;7.65;2.20;;;;;;;20.06;43.98;100009.19;5006515;28;20061;-53
2022/07/27 09:41:47;;;;;;;4.28;1.92;;;;;;;19.93;44.30;100013.88;5006733;28;20056;-55
2022/07/27 09:44:14;;;;;;;3.22;2.00;;;;;;;20.05;43.89;100012.84;5006100;28;20048;-57
2022/07/27 09:46:43;;;;;;;4.53;2.60;;;;;;;20.13;43.81;100010.38;5006835;28;20046;-56
2022/07/27 09:49:26;;;;;;;4.05;2.00;;;;;;;20.42;42.21;100016.88;5034391;28;20053;-72
2022/07/27 09:51:53;;;;;;;5.22;1.83;;;;;;;20.54;41.21;100005.09;5049412;28;20491;-73
2022/07/27 09:54:21;;;;;;;5.43;1.95;;;;;;;20.58;40.36;100001.19;5049093;28;20140;-69
2022/07/27 09:56:58;;;;;;;4.80;2.28;;;;;;;20.49;40.61;100005.47;5037777;28;20049;-69
2022/07/27 09:59:25;;;;;;;10.27;6.13;;;;;;;20.67;41.33;100004.88;5033151;28;20054;-70
2022/07/27 10:01:54;;;;;;;5.38;2.00;;;;;;;20.89;40.16;100003.81;5010561;28;20088;-68
2022/07/27 10:04:22;;;;;;;6.45;1.92;;;;;;;21.34;39.49;100006.03;5008964;28;20137;-69
2022/07/27 10:06:49;;;;;;;3.08;1.70;;;;;;;22.17;38.67;100006.47;5010091;28;20042;-69
2022/07/27 10:09:18;;;;;;;7.82;2.95;;;;;;;23.10;36.34;100008.25;5009926;28;20060;-69
2022/07/27 10:11:45;;;;;;;5.95;1.48;;;;;;;22.60;37.12;100007.78;5010044;28;20527;-69
2022/07/27 10:14:12;;;;;;;2.92;1.60;;;;;;;22.24;37.96;100005.75;5008395;28;20405;-70
2022/07/27 10:16:40;;;;;;;4.32;1.90;;;;;;;22.61;37.99;99991.50;5009902;28;20807;-69
2022/07/27 10:19:14;;;;;;;4.35;1.60;;;;;;;23.33;36.83;100005.13;5009542;28;20108;-70
2022/07/27 10:21:45;;;;;;;3.15;1.20;;;;;;;23.28;36.73;100002.06;5009742;28;20042;-71
2022/07/27 10:24:24;;;;;;;4.85;1.67;;;;;;;22.67;36.53;100012.41;5008906;28;20488;-69
2022/07/27 10:26:51;;;;;;;7.18;1.95;;;;;;;21.87;37.85;100009.19;5009970;28;20054;-68
2022/07/27 10:29:20;;;;;;;5.72;1.60;;;;;;;21.28;39.12;100009.28;5009576;28;20468;-69
2022/07/27 10:31:58;;;;;;;7.75;1.80;;;;;;;21.19;39.97;100002.91;5012059;28;20042;-69
2022/07/27 10:34:36;;;;;;;5.07;2.10;;;;;;;22.85;37.14;100001.72;5009003;28;20538;-69
2022/07/27 10:37:11;;;;;;;4.25;1.50;;;;;;;22.42;37.55;100005.00;5009510;28;20112;-70
2022/07/27 10:39:39;;;;;;;3.10;1.75;;;;;;;21.98;37.64;100007.31;5029070;28;20143;-69
2022/07/27 10:42:27;;;;;;;6.07;2.28;;;;;;;21.77;39.36;100012.88;5029560;28;20160;-70
2022/07/27 10:45:07;;;;;;;6.38;1.65;;;;;;;21.57;40.41;100007.50;5028706;28;20133;-70
2022/07/27 10:47:39;;;;;;;12.52;2.17;;;;;;;21.52;41.22;100019.66;5029423;28;20141;-70
2022/07/27 10:50:29;;;;;;;3.25;1.50;;;;;;;21.29;40.98;100016.34;5029176;28;20092;-68
2022/07/27 10:53:04;;;;;;;4.20;1.73;;;;;;;20.87;40.89;100012.03;5027034;28;20068;-70
2022/07/27 10:55:44;;;;;;;5.90;2.88;;;;;;;20.56;41.68;100020.06;5025338;28;20056;-70
2022/07/27 10:58:57;;;;;;;6.15;2.20;;;;;;;20.45;42.70;100013.91;5028949;28;20080;-68
2022/07/27 11:01:23;;;;;;;3.90;1.85;;;;;;;20.47;42.13;100011.94;4984228;28;20161;-68
2022/07/27 11:03:54;;;;;;;4.90;2.03;;;;;;;20.36;42.13;100008.38;5009844;28;20049;-70
2022/07/27 11:06:29;;;;;;;3.70;1.52;;;;;;;20.07;42.10;100007.38;5035373;28;20045;-70
2022/07/27 11:09:00;;;;;;;4.88;2.38;;;;;;;19.83;43.04;100008.44;5029402;28;20049;-70
2022/07/27 11:11:27;;;;;;;3.28;1.73;;;;;;;19.90;43.40;99996.25;5022717;28;20156;-70
2022/07/27 11:13:57;;;;;;;9.20;2.50;;;;;;;20.09;43.55;100000.91;5008465;28;20081;-70
2022/07/27 11:16:25;;;;;;;8.63;4.57;;;;;;;20.26;43.26;99999.44;5008751;28;20050;-71
2022/07/27 11:18:55;;;;;;;8.77;2.28;;;;;;;20.34;42.72;99988.91;5008639;28;20089;-70
2022/07/27 11:21:24;;;;;;;2.55;1.60;;;;;;;20.44;43.65;99986.28;5008156;28;20053;-71
2022/07/27 11:23:52;;;;;;;8.38;2.13;;;;;;;20.61;42.09;99992.03;5008702;28;20060;-72
2022/07/27 11:26:22;;;;;;;5.90;2.13;;;;;;;20.80;41.51;99992.13;5008633;28;20052;-69
2022/07/27 11:28:50;;;;;;;2.25;1.52;;;;;;;20.77;41.19;99982.50;5008719;28;20440;-70
2022/07/27 11:31:17;;;;;;;5.30;1.80;;;;;;;20.59;40.85;99984.97;5008370;28;20064;-70
2022/07/27 11:33:52;;;;;;;2.78;1.40;;;;;;;20.56;40.99;99977.22;5008373;28;20054;-71
2022/07/27 11:36:20;;;;;;;3.50;2.10;;;;;;;20.65;40.72;99980.06;5008453;28;20054;-70
2022/07/27 11:38:48;;;;;;;5.38;1.92;;;;;;;20.77;41.29;99978.97;5008695;28;20072;-70